createdAt,value
2022-08-30T00:01:14.176Z,19.70
2022-08-30T00:08:14.827Z,19.50
2022-08-30T00:15:17.073Z,19.30
2022-08-30T00:22:17.613Z,19.10
2022-08-30T00:29:18.357Z,18.90
2022-08-30T00:36:19.024Z,18.70
2022-08-30T00:43:27.829Z,18.60
2022-08-30T00:50:33.725Z,18.50
2022-08-30T00:57:35.829Z,18.30
2022-08-30T01:04:37.657Z,18.20
2022-08-30T01:11:41.800Z,18.00
2022-08-30T01:18:42.528Z,17.90
2022-08-30T01:25:50.366Z,17.80
2022-08-30T01:32:58.264Z,17.70
2022-08-30T01:39:59.438Z,17.60
2022-08-30T01:47:00.097Z,17.50
2022-08-30T01:54:00.878Z,17.50
2022-08-30T02:01:03.290Z,17.40
2022-08-30T02:08:04.715Z,17.40
2022-08-30T02:15:06.391Z,17.50
2022-08-30T02:22:06.956Z,17.50
2022-08-30T02:29:07.515Z,17.50
2022-08-30T02:36:08.716Z,17.50
2022-08-30T02:43:09.450Z,17.50
2022-08-30T02:50:11.109Z,17.50
2022-08-30T02:57:20.246Z,17.60
2022-08-30T03:04:26.515Z,17.60
2022-08-30T03:11:27.459Z,17.70
2022-08-30T03:18:28.657Z,17.80
2022-08-30T03:25:29.335Z,17.80
2022-08-30T03:32:30.085Z,17.80
2022-08-30T03:39:31.585Z,17.80
2022-08-30T03:46:36.805Z,17.80
2022-08-30T03:53:37.976Z,17.80
2022-08-30T04:00:38.412Z,17.70
2022-08-30T04:07:39.341Z,17.60
2022-08-30T04:14:39.876Z,17.50
2022-08-30T04:21:42.795Z,17.50
2022-08-30T04:28:43.494Z,17.40
2022-08-30T04:35:46.716Z,17.20
2022-08-30T04:42:47.592Z,17.00
2022-08-30T04:49:48.519Z,17.00
2022-08-30T04:56:48.929Z,17.00
2022-08-30T05:03:50.646Z,16.90
2022-08-30T05:10:52.887Z,16.90
2022-08-30T05:17:53.432Z,16.80
2022-08-30T05:24:54.357Z,16.70
2022-08-30T05:31:55.076Z,16.70
2022-08-30T05:38:55.859Z,16.70
2022-08-30T05:46:08.327Z,16.70
2022-08-30T05:53:08.870Z,16.80
2022-08-30T06:00:13.462Z,16.80
2022-08-30T06:07:15.861Z,17.00
2022-08-30T06:14:17.901Z,17.30
2022-08-30T06:21:25.999Z,17.50
2022-08-30T06:28:26.305Z,17.80
2022-08-30T06:35:28.678Z,18.10
2022-08-30T06:42:32.289Z,18.50
2022-08-30T06:49:33.369Z,18.80
2022-08-30T06:56:36.105Z,19.10
2022-08-30T07:03:36.893Z,19.40
2022-08-30T07:10:41.503Z,19.60
2022-08-30T07:18:00.298Z,20.00
2022-08-30T07:25:00.994Z,20.40
2022-08-30T07:32:01.756Z,20.70
2022-08-30T07:39:03.162Z,21.00
2022-08-30T07:46:06.744Z,21.30
2022-08-30T07:53:10.676Z,21.60
2022-08-30T08:00:12.083Z,21.80
2022-08-30T08:07:13.468Z,21.90
2022-08-30T08:14:13.683Z,22.10
2022-08-30T08:21:14.321Z,22.30
2022-08-30T08:28:14.782Z,22.50
2022-08-30T08:35:17.604Z,22.80
2022-08-30T08:42:26.079Z,23.10
2022-08-30T08:49:26.440Z,23.30
2022-08-30T08:56:27.106Z,23.50
2022-08-30T09:03:29.320Z,23.70
2022-08-30T09:10:49.301Z,23.90
2022-08-30T09:18:03.974Z,24.10
2022-08-30T09:25:27.245Z,24.10
2022-08-30T09:32:33.871Z,24.30
2022-08-30T09:39:38.182Z,24.40
2022-08-30T09:46:47.204Z,24.60
2022-08-30T09:54:25.459Z,24.90
2022-08-30T10:01:52.820Z,25.20
2022-08-30T10:09:12.540Z,25.50
2022-08-30T10:16:43.860Z,25.70
2022-08-30T10:23:51.573Z,25.90
2022-08-30T10:31:18.868Z,26.10
2022-08-30T10:38:29.488Z,26.20
2022-08-30T10:45:34.870Z,26.30
2022-08-30T10:52:50.510Z,26.40
2022-08-30T11:00:06.077Z,26.40
2022-08-30T11:07:15.368Z,26.50
2022-08-30T11:14:18.811Z,26.70
2022-08-30T11:21:36.030Z,26.90
2022-08-30T11:28:36.246Z,27.20
2022-08-30T11:35:49.134Z,27.40
2022-08-30T11:42:51.881Z,27.50
2022-08-30T11:50:35.638Z,27.60
2022-08-30T11:58:19.655Z,27.50
2022-08-30T12:05:39.479Z,27.60
2022-08-30T12:12:47.624Z,27.60
2022-08-30T12:19:50.482Z,27.50
2022-08-30T12:26:52.813Z,27.60
2022-08-30T12:34:03.225Z,27.40
2022-08-30T12:41:05.816Z,27.50
2022-08-30T12:48:19.624Z,27.70
2022-08-30T12:55:31.222Z,27.90
2022-08-30T13:02:48.208Z,28.10
2022-08-30T13:09:48.597Z,28.30
2022-08-30T13:16:52.692Z,28.40
2022-08-30T13:23:57.835Z,28.30
2022-08-30T13:30:58.412Z,28.60
2022-08-30T13:38:01.887Z,28.80
2022-08-30T13:45:02.830Z,28.90
2022-08-30T13:52:19.771Z,29.10
2022-08-30T13:59:21.759Z,29.10
2022-08-30T14:06:33.774Z,28.80
2022-08-30T14:13:34.478Z,28.50
2022-08-30T14:20:35.479Z,28.50
2022-08-30T14:27:39.331Z,28.60
2022-08-30T14:34:40.239Z,28.80
2022-08-30T14:41:45.512Z,28.90
2022-08-30T14:48:46.858Z,28.80
2022-08-30T14:55:47.167Z,29.00
2022-08-30T15:02:47.496Z,29.10
2022-08-30T15:09:49.512Z,29.10
2022-08-30T15:16:49.835Z,29.20
2022-08-30T15:23:51.300Z,29.60
2022-08-30T15:30:52.726Z,29.60
2022-08-30T15:37:53.230Z,29.50
2022-08-30T15:44:55.401Z,29.60
2022-08-30T15:52:00.975Z,29.30
2022-08-30T15:59:02.027Z,28.90
2022-08-30T16:06:03.970Z,28.70
2022-08-30T16:13:05.201Z,28.60
2022-08-30T16:20:08.810Z,28.40
2022-08-30T16:27:09.029Z,28.10
2022-08-30T16:34:11.171Z,27.60
2022-08-30T16:41:15.614Z,27.40
2022-08-30T16:48:19.125Z,27.20
2022-08-30T16:55:19.621Z,26.90
2022-08-30T17:02:21.987Z,26.80
2022-08-30T17:09:22.524Z,26.80
2022-08-30T17:16:27.890Z,26.60
2022-08-30T17:23:29.595Z,26.40
2022-08-30T17:30:30.124Z,26.10
2022-08-30T17:37:30.444Z,25.90
2022-08-30T17:44:33.177Z,25.70
2022-08-30T17:51:33.798Z,25.50
2022-08-30T17:58:34.636Z,25.30
2022-08-30T18:05:35.147Z,25.10
2022-08-30T18:12:38.965Z,24.90
2022-08-30T18:19:46.051Z,24.80
2022-08-30T18:26:47.151Z,24.60
2022-08-30T18:33:47.834Z,24.30
2022-08-30T18:40:49.489Z,24.20
2022-08-30T18:47:50.199Z,24.10
2022-08-30T18:54:52.956Z,23.90
2022-08-30T19:01:53.645Z,23.70
2022-08-30T19:08:54.150Z,23.60
2022-08-30T19:15:54.891Z,23.50
2022-08-30T19:23:09.526Z,23.40
2022-08-30T19:30:21.648Z,23.30
2022-08-30T19:37:25.927Z,23.20
2022-08-30T19:44:26.611Z,23.10
2022-08-30T19:51:27.370Z,23.00
2022-08-30T19:58:28.213Z,22.90
2022-08-30T20:05:30.302Z,22.80
2022-08-30T20:12:34.320Z,22.80
2022-08-30T20:19:35.109Z,22.70
2022-08-30T20:26:36.774Z,22.60
2022-08-30T20:33:38.268Z,22.50
2022-08-30T20:40:39.871Z,22.40
2022-08-30T20:47:41.717Z,22.30
2022-08-30T20:54:45.763Z,22.20
2022-08-30T21:01:46.747Z,22.10
2022-08-30T21:08:47.733Z,22.10
2022-08-30T21:15:54.773Z,22.00
2022-08-30T21:22:55.951Z,22.00
2022-08-30T21:29:57.416Z,21.90
2022-08-30T21:36:58.436Z,21.90
2022-08-30T21:44:05.346Z,21.80
2022-08-30T21:51:10.282Z,21.70
2022-08-30T21:58:11.020Z,21.70
2022-08-30T22:05:12.647Z,21.60
2022-08-30T22:12:14.889Z,21.60
2022-08-30T22:19:17.742Z,21.50
2022-08-30T22:26:22.051Z,21.50
2022-08-30T22:33:22.716Z,21.40
2022-08-30T22:40:23.531Z,21.40
2022-08-30T22:47:24.107Z,21.40
2022-08-30T22:54:24.801Z,21.30
2022-08-30T23:01:37.963Z,21.30
2022-08-30T23:08:38.218Z,21.20
2022-08-30T23:15:38.725Z,21.20
2022-08-30T23:22:39.505Z,21.10
2022-08-30T23:29:59.614Z,21.10
2022-08-30T23:37:18.944Z,21.00
2022-08-30T23:44:38.297Z,20.90
2022-08-30T23:51:57.645Z,20.70
2022-08-30T23:59:16.754Z,20.60
